sensor_id;sensor_type;location;lat;lon;timestamp;pressure;altitude;pressure_sealevel;temperature;humidity
29239;BME280;16267;48.194;11.546;2022-10-16T00:01:16;96004.38;;;15.34;95.41
29239;BME280;16267;48.194;11.546;2022-10-16T00:03:43;96009.81;;;15.34;95.64
29239;BME280;16267;48.194;11.546;2022-10-16T00:06:11;96005.59;;;15.33;95.67
29239;BME280;16267;48.194;11.546;2022-10-16T00:08:38;96002.56;;;15.31;95.76
29239;BME280;16267;48.194;11.546;2022-10-16T00:11:11;96006.44;;;15.30;96.11
29239;BME280;16267;48.194;11.546;2022-10-16T00:13:40;96014.97;;;15.29;95.98
29239;BME280;16267;48.194;11.546;2022-10-16T00:16:07;96020.38;;;15.29;96.23
29239;BME280;16267;48.194;11.546;2022-10-16T00:18:34;96011.94;;;15.27;96.15
29239;BME280;16267;48.194;11.546;2022-10-16T00:21:13;96004.28;;;15.25;96.22
29239;BME280;16267;48.194;11.546;2022-10-16T00:23:39;95991.16;;;15.24;96.50
29239;BME280;16267;48.194;11.546;2022-10-16T00:26:10;95993.56;;;15.22;96.44
29239;BME280;16267;48.194;11.546;2022-10-16T00:28:37;96002.84;;;15.21;96.58
29239;BME280;16267;48.194;11.546;2022-10-16T00:31:06;96012.91;;;15.20;96.53
29239;BME280;16267;48.194;11.546;2022-10-16T00:33:33;96007.91;;;15.18;96.50
29239;BME280;16267;48.194;11.546;2022-10-16T00:36:00;95996.03;;;15.16;96.81
29239;BME280;16267;48.194;11.546;2022-10-16T00:38:26;96002.63;;;15.15;96.65
29239;BME280;16267;48.194;11.546;2022-10-16T00:40:52;96001.88;;;15.14;97.16
29239;BME280;16267;48.194;11.546;2022-10-16T00:43:50;96002.28;;;15.13;97.14
29239;BME280;16267;48.194;11.546;2022-10-16T00:46:21;96001.53;;;15.12;97.41
29239;BME280;16267;48.194;11.546;2022-10-16T00:49:04;96013.09;;;15.13;97.28
29239;BME280;16267;48.194;11.546;2022-10-16T00:51:37;96008.88;;;15.12;97.35
29239;BME280;16267;48.194;11.546;2022-10-16T00:54:08;96010.84;;;15.11;97.48
29239;BME280;16267;48.194;11.546;2022-10-16T00:56:35;96018.94;;;15.11;97.34
29239;BME280;16267;48.194;11.546;2022-10-16T00:59:06;96019.38;;;15.10;97.60
29239;BME280;16267;48.194;11.546;2022-10-16T01:01:34;96012.47;;;15.09;97.58
29239;BME280;16267;48.194;11.546;2022-10-16T01:03:59;96015.16;;;15.09;97.57
29239;BME280;16267;48.194;11.546;2022-10-16T01:07:13;96021.75;;;15.08;97.46
29239;BME280;16267;48.194;11.546;2022-10-16T01:13:04;96026.81;;;15.06;98.10
29239;BME280;16267;48.194;11.546;2022-10-16T01:18:27;96031.91;;;15.04;97.86
29239;BME280;16267;48.194;11.546;2022-10-16T01:21:04;96040.00;;;15.04;97.74
29239;BME280;16267;48.194;11.546;2022-10-16T01:26:47;96034.25;;;15.02;97.47
29239;BME280;16267;48.194;11.546;2022-10-16T01:29:23;96035.47;;;15.01;97.50
29239;BME280;16267;48.194;11.546;2022-10-16T01:31:56;96039.34;;;15.00;97.65
29239;BME280;16267;48.194;11.546;2022-10-16T01:34:58;96037.81;;;14.99;97.60
29239;BME280;16267;48.194;11.546;2022-10-16T01:37:50;96029.41;;;14.97;97.55
29239;BME280;16267;48.194;11.546;2022-10-16T01:40:20;96022.03;;;14.97;97.70
29239;BME280;16267;48.194;11.546;2022-10-16T01:42:52;96021.28;;;14.97;97.75
29239;BME280;16267;48.194;11.546;2022-10-16T01:45:20;96013.59;;;14.95;97.98
29239;BME280;16267;48.194;11.546;2022-10-16T01:47:48;96022.91;;;14.94;98.07
29239;BME280;16267;48.194;11.546;2022-10-16T01:50:17;96014.00;;;14.93;98.27
29239;BME280;16267;48.194;11.546;2022-10-16T01:52:48;96014.00;;;14.93;98.38
29239;BME280;16267;48.194;11.546;2022-10-16T01:55:22;96018.66;;;14.93;98.58
29239;BME280;16267;48.194;11.546;2022-10-16T01:57:51;96019.88;;;14.92;98.38
29239;BME280;16267;48.194;11.546;2022-10-16T02:00:19;96012.50;;;14.92;98.39
29239;BME280;16267;48.194;11.546;2022-10-16T02:02:49;96012.97;;;14.91;98.46
29239;BME280;16267;48.194;11.546;2022-10-16T02:05:45;96011.00;;;14.91;98.44
29239;BME280;16267;48.194;11.546;2022-10-16T02:08:12;96005.25;;;14.89;98.53
29239;BME280;16267;48.194;11.546;2022-10-16T02:10:38;96009.91;;;14.89;98.39
29239;BME280;16267;48.194;11.546;2022-10-16T02:13:33;96007.63;;;14.87;98.26
29239;BME280;16267;48.194;11.546;2022-10-16T02:16:01;96016.47;;;14.88;98.21
29239;BME280;16267;48.194;11.546;2022-10-16T02:18:27;96009.56;;;14.87;98.43
29239;BME280;16267;48.194;11.546;2022-10-16T02:21:26;96005.78;;;14.84;98.61
29239;BME280;16267;48.194;11.546;2022-10-16T02:27:07;96018.94;;;14.82;98.58
29239;BME280;16267;48.194;11.546;2022-10-16T02:29:40;96010.09;;;14.82;98.20
29239;BME280;16267;48.194;11.546;2022-10-16T02:32:12;96020.91;;;14.82;98.47
29239;BME280;16267;48.194;11.546;2022-10-16T02:34:39;96028.25;;;14.81;98.41
29239;BME280;16267;48.194;11.546;2022-10-16T02:37:06;96034.84;;;14.80;98.15
29239;BME280;16267;48.194;11.546;2022-10-16T02:39:33;96021.75;;;14.79;98.32
29239;BME280;16267;48.194;11.546;2022-10-16T02:41:59;96025.22;;;14.79;98.10
29239;BME280;16267;48.194;11.546;2022-10-16T02:44:25;96034.94;;;14.77;98.01
29239;BME280;16267;48.194;11.546;2022-10-16T02:46:51;96039.16;;;14.78;98.26
29239;BME280;16267;48.194;11.546;2022-10-16T02:49:16;96029.53;;;14.77;98.06
29239;BME280;16267;48.194;11.546;2022-10-16T02:51:43;96027.25;;;14.75;98.14
29239;BME280;16267;48.194;11.546;2022-10-16T02:54:09;96035.38;;;14.75;98.05
29239;BME280;16267;48.194;11.546;2022-10-16T02:56:34;96041.94;;;14.74;98.00
29239;BME280;16267;48.194;11.546;2022-10-16T02:59:00;96036.97;;;14.72;97.76
29239;BME280;16267;48.194;11.546;2022-10-16T03:01:26;96036.63;;;14.70;97.67
29239;BME280;16267;48.194;11.546;2022-10-16T03:03:51;96030.47;;;14.70;97.93
29239;BME280;16267;48.194;11.546;2022-10-16T03:06:17;96026.28;;;14.69;97.84
29239;BME280;16267;48.194;11.546;2022-10-16T03:08:43;96030.88;;;14.68;97.87
29239;BME280;16267;48.194;11.546;2022-10-16T03:11:09;96023.22;;;14.67;97.60
29239;BME280;16267;48.194;11.546;2022-10-16T03:13:34;96023.63;;;14.65;97.82
29239;BME280;16267;48.194;11.546;2022-10-16T03:16:00;96021.69;;;14.66;97.78
29239;BME280;16267;48.194;11.546;2022-10-16T03:18:26;96027.53;;;14.64;97.78
29239;BME280;16267;48.194;11.546;2022-10-16T03:20:51;96021.78;;;14.62;97.59
29239;BME280;16267;48.194;11.546;2022-10-16T03:23:17;96024.50;;;14.62;97.65
29239;BME280;16267;48.194;11.546;2022-10-16T03:25:43;96035.28;;;14.62;97.58
29239;BME280;16267;48.194;11.546;2022-10-16T03:28:09;96030.34;;;14.61;97.65
29239;BME280;16267;48.194;11.546;2022-10-16T03:30:34;96033.44;;;14.59;97.66
29239;BME280;16267;48.194;11.546;2022-10-16T03:33:00;96027.28;;;14.59;97.61
29239;BME280;16267;48.194;11.546;2022-10-16T03:35:26;96022.31;;;14.57;97.59
29239;BME280;16267;48.194;11.546;2022-10-16T03:37:51;96031.19;;;14.58;97.60
29239;BME280;16267;48.194;11.546;2022-10-16T03:40:18;96032.34;;;14.57;97.63
29239;BME280;16267;48.194;11.546;2022-10-16T03:42:44;96037.00;;;14.56;97.86
29239;BME280;16267;48.194;11.546;2022-10-16T03:45:11;96042.41;;;14.56;97.79
29239;BME280;16267;48.194;11.546;2022-10-16T03:47:37;96048.22;;;14.55;97.99
29239;BME280;16267;48.194;11.546;2022-10-16T03:50:04;96048.22;;;14.55;97.86
29239;BME280;16267;48.194;11.546;2022-10-16T03:52:30;96048.22;;;14.55;98.05
29239;BME280;16267;48.194;11.546;2022-10-16T03:54:57;96053.22;;;14.56;98.11
29239;BME280;16267;48.194;11.546;2022-10-16T03:57:23;96050.16;;;14.54;98.13
29239;BME280;16267;48.194;11.546;2022-10-16T03:59:49;96045.50;;;14.55;98.10
29239;BME280;16267;48.194;11.546;2022-10-16T04:02:14;96044.00;;;14.54;98.07
29239;BME280;16267;48.194;11.546;2022-10-16T04:04:40;96050.16;;;14.54;98.31
29239;BME280;16267;48.194;11.546;2022-10-16T04:07:06;96047.47;;;14.54;98.14
29239;BME280;16267;48.194;11.546;2022-10-16T04:09:31;96048.22;;;14.55;98.52
29239;BME280;16267;48.194;11.546;2022-10-16T04:11:57;96052.09;;;14.54;98.37
29239;BME280;16267;48.194;11.546;2022-10-16T04:14:23;96043.59;;;14.55;98.34
29239;BME280;16267;48.194;11.546;2022-10-16T04:16:48;96045.50;;;14.55;98.37
29239;BME280;16267;48.194;11.546;2022-10-16T04:19:14;96046.72;;;14.54;98.80
29239;BME280;16267;48.194;11.546;2022-10-16T04:21:40;96042.81;;;14.55;99.25
29239;BME280;16267;48.194;11.546;2022-10-16T04:24:05;96047.47;;;14.54;99.10
29239;BME280;16267;48.194;11.546;2022-10-16T04:26:31;96038.59;;;14.54;99.17
29239;BME280;16267;48.194;11.546;2022-10-16T04:28:57;96042.06;;;14.54;99.46
29239;BME280;16267;48.194;11.546;2022-10-16T04:31:23;96040.56;;;14.53;99.41
29239;BME280;16267;48.194;11.546;2022-10-16T04:33:48;96040.56;;;14.53;99.68
29239;BME280;16267;48.194;11.546;2022-10-16T04:36:14;96047.47;;;14.54;99.84
29239;BME280;16267;48.194;11.546;2022-10-16T04:38:40;96049.81;;;14.52;99.88
29239;BME280;16267;48.194;11.546;2022-10-16T04:41:07;96049.03;;;14.51;100.00
29239;BME280;16267;48.194;11.546;2022-10-16T04:43:33;96055.22;;;14.52;99.72
29239;BME280;16267;48.194;11.546;2022-10-16T04:45:59;96052.53;;;14.52;99.52
29239;BME280;16267;48.194;11.546;2022-10-16T04:48:25;96052.53;;;14.52;99.48
29239;BME280;16267;48.194;11.546;2022-10-16T04:50:51;96055.22;;;14.52;99.35
29239;BME280;16267;48.194;11.546;2022-10-16T04:53:17;96064.09;;;14.53;99.43
29239;BME280;16267;48.194;11.546;2022-10-16T04:55:43;96054.06;;;14.53;99.46
29239;BME280;16267;48.194;11.546;2022-10-16T04:58:09;96043.25;;;14.53;99.37
29239;BME280;16267;48.194;11.546;2022-10-16T05:00:35;96045.19;;;14.53;99.33
29239;BME280;16267;48.194;11.546;2022-10-16T05:03:01;96038.59;;;14.54;99.35
29239;BME280;16267;48.194;11.546;2022-10-16T05:05:31;96034.41;;;14.53;99.30
29239;BME280;16267;48.194;11.546;2022-10-16T05:07:57;96042.50;;;14.53;99.28
29239;BME280;16267;48.194;11.546;2022-10-16T05:10:22;96051.34;;;14.53;99.30
29239;BME280;16267;48.194;11.546;2022-10-16T05:12:48;96063.66;;;14.54;99.41
29239;BME280;16267;48.194;11.546;2022-10-16T05:15:14;96056.31;;;14.55;99.52
29239;BME280;16267;48.194;11.546;2022-10-16T05:17:40;96056.31;;;14.55;99.33
29239;BME280;16267;48.194;11.546;2022-10-16T05:20:06;96050.16;;;14.54;99.60
29239;BME280;16267;48.194;11.546;2022-10-16T05:22:32;96050.91;;;14.55;99.51
29239;BME280;16267;48.194;11.546;2022-10-16T05:24:58;96051.34;;;14.53;99.35
29239;BME280;16267;48.194;11.546;2022-10-16T05:27:23;96044.75;;;14.54;99.31
29239;BME280;16267;48.194;11.546;2022-10-16T05:29:49;96059.03;;;14.55;99.44
29239;BME280;16267;48.194;11.546;2022-10-16T05:32:17;96072.53;;;14.55;99.28
29239;BME280;16267;48.194;11.546;2022-10-16T05:34:43;96066.38;;;14.54;99.33
29239;BME280;16267;48.194;11.546;2022-10-16T05:37:10;96063.25;;;14.56;99.30
29239;BME280;16267;48.194;11.546;2022-10-16T05:39:40;96063.66;;;14.54;99.38
29239;BME280;16267;48.194;11.546;2022-10-16T05:42:06;96078.72;;;14.55;99.35
29239;BME280;16267;48.194;11.546;2022-10-16T05:44:32;96080.63;;;14.55;99.50
29239;BME280;16267;48.194;11.546;2022-10-16T05:46:58;96076.00;;;14.55;99.28
29239;BME280;16267;48.194;11.546;2022-10-16T05:49:23;96077.91;;;14.55;99.34
29239;BME280;16267;48.194;11.546;2022-10-16T05:51:49;96082.16;;;14.56;99.15
29239;BME280;16267;48.194;11.546;2022-10-16T05:54:16;96087.56;;;14.56;99.16
29239;BME280;16267;48.194;11.546;2022-10-16T05:56:42;96088.72;;;14.55;99.47
29239;BME280;16267;48.194;11.546;2022-10-16T05:59:11;96093.38;;;14.54;99.38
29239;BME280;16267;48.194;11.546;2022-10-16T06:01:38;96083.75;;;14.53;99.56
29239;BME280;16267;48.194;11.546;2022-10-16T06:04:03;96086.09;;;14.51;99.70
29239;BME280;16267;48.194;11.546;2022-10-16T06:06:29;96079.94;;;14.50;99.66
29239;BME280;16267;48.194;11.546;2022-10-16T06:08:57;96095.38;;;14.50;99.74
29239;BME280;16267;48.194;11.546;2022-10-16T06:11:27;96090.41;;;14.48;99.52
29239;BME280;16267;48.194;11.546;2022-10-16T06:13:56;96093.84;;;14.49;99.42
29239;BME280;16267;48.194;11.546;2022-10-16T06:16:24;96098.16;;;14.46;99.77
29239;BME280;16267;48.194;11.546;2022-10-16T06:18:55;96102.03;;;14.45;99.83
29239;BME280;16267;48.194;11.546;2022-10-16T06:21:26;96103.56;;;14.46;99.72
29239;BME280;16267;48.194;11.546;2022-10-16T06:23:54;96101.28;;;14.45;99.50
29239;BME280;16267;48.194;11.546;2022-10-16T06:26:23;96107.44;;;14.45;99.43
29239;BME280;16267;48.194;11.546;2022-10-16T06:28:49;96112.84;;;14.45;99.31
29239;BME280;16267;48.194;11.546;2022-10-16T06:31:16;96114.34;;;14.46;99.31
29239;BME280;16267;48.194;11.546;2022-10-16T06:33:42;96119.00;;;14.46;99.22
29239;BME280;16267;48.194;11.546;2022-10-16T06:36:15;96121.38;;;14.44;99.08
29239;BME280;16267;48.194;11.546;2022-10-16T06:38:42;96118.69;;;14.44;99.21
29239;BME280;16267;48.194;11.546;2022-10-16T06:41:15;96113.69;;;14.42;99.24
29239;BME280;16267;48.194;11.546;2022-10-16T06:43:41;96121.78;;;14.42;99.10
29239;BME280;16267;48.194;11.546;2022-10-16T06:46:09;96134.09;;;14.43;99.13
29239;BME280;16267;48.194;11.546;2022-10-16T06:48:36;96135.28;;;14.42;99.23
29239;BME280;16267;48.194;11.546;2022-10-16T06:51:13;96134.53;;;14.42;98.99
29239;BME280;16267;48.194;11.546;2022-10-16T06:53:43;96134.09;;;14.43;99.00
29239;BME280;16267;48.194;11.546;2022-10-16T06:56:14;96135.28;;;14.42;98.85
29239;BME280;16267;48.194;11.546;2022-10-16T06:58:42;96133.34;;;14.43;98.88
29239;BME280;16267;48.194;11.546;2022-10-16T07:01:09;96153.00;;;14.43;98.99
29239;BME280;16267;48.194;11.546;2022-10-16T07:03:40;96150.00;;;14.41;98.95
29239;BME280;16267;48.194;11.546;2022-10-16T07:06:10;96151.91;;;14.41;98.81
29239;BME280;16267;48.194;11.546;2022-10-16T07:08:39;96155.78;;;14.40;99.33
29239;BME280;16267;48.194;11.546;2022-10-16T07:11:08;96160.00;;;14.41;99.28
29239;BME280;16267;48.194;11.546;2022-10-16T07:13:35;96162.72;;;14.41;99.16
29239;BME280;16267;48.194;11.546;2022-10-16T07:16:06;96156.16;;;14.42;99.23
29239;BME280;16267;48.194;11.546;2022-10-16T07:18:32;96164.25;;;14.42;99.41
29239;BME280;16267;48.194;11.546;2022-10-16T07:21:28;96162.72;;;14.41;99.57
29239;BME280;16267;48.194;11.546;2022-10-16T07:23:59;96158.09;;;14.41;100.00
29239;BME280;16267;48.194;11.546;2022-10-16T07:26:28;96155.38;;;14.41;100.00
29239;BME280;16267;48.194;11.546;2022-10-16T07:28:55;96165.75;;;14.43;100.00
29239;BME280;16267;48.194;11.546;2022-10-16T07:31:22;96167.63;;;14.46;100.00
29239;BME280;16267;48.194;11.546;2022-10-16T07:33:50;96176.47;;;14.46;100.00
29239;BME280;16267;48.194;11.546;2022-10-16T07:36:17;96184.91;;;14.48;100.00
29239;BME280;16267;48.194;11.546;2022-10-16T07:38:44;96182.94;;;14.53;100.00
29239;BME280;16267;48.194;11.546;2022-10-16T07:41:14;96189.84;;;14.54;100.00
29239;BME280;16267;48.194;11.546;2022-10-16T07:43:40;96189.00;;;14.57;100.00
29239;BME280;16267;48.194;11.546;2022-10-16T07:46:10;96191.28;;;14.58;100.00
29239;BME280;16267;48.194;11.546;2022-10-16T07:48:36;96199.97;;;14.66;100.00
29239;BME280;16267;48.194;11.546;2022-10-16T07:51:05;96201.78;;;14.72;100.00
29239;BME280;16267;48.194;11.546;2022-10-16T07:53:32;96198.22;;;14.76;100.00
29239;BME280;16267;48.194;11.546;2022-10-16T07:56:04;96204.28;;;14.80;100.00
29239;BME280;16267;48.194;11.546;2022-10-16T07:58:30;96196.44;;;14.85;100.00
29239;BME280;16267;48.194;11.546;2022-10-16T08:00:57;96203.63;;;14.92;100.00
29239;BME280;16267;48.194;11.546;2022-10-16T08:03:24;96203.88;;;14.98;100.00
29239;BME280;16267;48.194;11.546;2022-10-16T08:05:51;96203.72;;;15.05;100.00
29239;BME280;16267;48.194;11.546;2022-10-16T08:08:18;96203.97;;;15.10;100.00
29239;BME280;16267;48.194;11.546;2022-10-16T08:10:44;96209.19;;;15.17;100.00
29239;BME280;16267;48.194;11.546;2022-10-16T08:13:10;96207.06;;;15.25;100.00
29239;BME280;16267;48.194;11.546;2022-10-16T08:15:36;96211.09;;;15.33;100.00
29239;BME280;16267;48.194;11.546;2022-10-16T08:18:04;96216.75;;;15.39;100.00
29239;BME280;16267;48.194;11.546;2022-10-16T08:20:32;96215.06;;;15.45;100.00
29239;BME280;16267;48.194;11.546;2022-10-16T08:22:59;96221.03;;;15.53;100.00
29239;BME280;16267;48.194;11.546;2022-10-16T08:25:26;96218.91;;;15.60;100.00
29239;BME280;16267;48.194;11.546;2022-10-16T08:27:52;96222.97;;;15.69;100.00
29239;BME280;16267;48.194;11.546;2022-10-16T08:30:20;96224.31;;;15.77;100.00
29239;BME280;16267;48.194;11.546;2022-10-16T08:32:46;96215.13;;;15.87;100.00
29239;BME280;16267;48.194;11.546;2022-10-16T08:35:13;96228.47;;;15.94;100.00
29239;BME280;16267;48.194;11.546;2022-10-16T08:37:39;96226.63;;;16.04;100.00
29239;BME280;16267;48.194;11.546;2022-10-16T08:40:13;96224.81;;;16.14;100.00
29239;BME280;16267;48.194;11.546;2022-10-16T08:43:12;96230.34;;;16.23;100.00
29239;BME280;16267;48.194;11.546;2022-10-16T08:48:47;96234.81;;;16.42;100.00
29239;BME280;16267;48.194;11.546;2022-10-16T08:51:41;96239.59;;;16.51;100.00
29239;BME280;16267;48.194;11.546;2022-10-16T08:54:34;96244.28;;;16.63;100.00
29239;BME280;16267;48.194;11.546;2022-10-16T08:57:20;96241.66;;;16.72;99.62
29239;BME280;16267;48.194;11.546;2022-10-16T08:59:46;96245.72;;;16.81;99.79
29239;BME280;16267;48.194;11.546;2022-10-16T09:05:24;96254.34;;;17.01;98.81
29239;BME280;16267;48.194;11.546;2022-10-16T09:11:44;96248.91;;;17.27;95.08
29239;BME280;16267;48.194;11.546;2022-10-16T09:20:18;96241.97;;;17.60;93.29
29239;BME280;16267;48.194;11.546;2022-10-16T09:22:45;96244.00;;;17.69;93.90
29239;BME280;16267;48.194;11.546;2022-10-16T09:25:18;96254.97;;;17.78;93.21
29239;BME280;16267;48.194;11.546;2022-10-16T09:27:55;96251.25;;;17.85;89.85
29239;BME280;16267;48.194;11.546;2022-10-16T09:30:22;96250.09;;;17.95;89.85
29239;BME280;16267;48.194;11.546;2022-10-16T09:32:51;96246.41;;;18.02;85.44
29239;BME280;16267;48.194;11.546;2022-10-16T09:35:43;96246.91;;;18.10;84.84
29239;BME280;16267;48.194;11.546;2022-10-16T09:38:08;96251.16;;;18.20;86.84
29239;BME280;16267;48.194;11.546;2022-10-16T09:40:39;96250.94;;;18.27;86.38
29239;BME280;16267;48.194;11.546;2022-10-16T09:43:24;96241.31;;;18.35;84.66
29239;BME280;16267;48.194;11.546;2022-10-16T09:46:06;96254.94;;;18.44;85.27
29239;BME280;16267;48.194;11.546;2022-10-16T09:48:37;96257.25;;;18.55;86.64
29239;BME280;16267;48.194;11.546;2022-10-16T09:51:05;96263.19;;;18.63;85.06
29239;BME280;16267;48.194;11.546;2022-10-16T09:53:44;96263.22;;;18.72;85.08
29239;BME280;16267;48.194;11.546;2022-10-16T09:56:20;96268.28;;;18.83;82.99
29239;BME280;16267;48.194;11.546;2022-10-16T09:58:53;96269.22;;;18.89;82.20
29239;BME280;16267;48.194;11.546;2022-10-16T10:01:20;96269.22;;;18.98;78.63
29239;BME280;16267;48.194;11.546;2022-10-16T10:03:47;96273.97;;;19.07;79.74
29239;BME280;16267;48.194;11.546;2022-10-16T10:12:01;96260.56;;;19.31;76.15
29239;BME280;16267;48.194;11.546;2022-10-16T10:14:43;96263.75;;;19.38;76.09
29239;BME280;16267;48.194;11.546;2022-10-16T10:17:18;96259.53;;;19.47;76.19
29239;BME280;16267;48.194;11.546;2022-10-16T10:19:53;96260.91;;;19.51;75.30
29239;BME280;16267;48.194;11.546;2022-10-16T10:25:12;96269.25;;;19.66;75.19
29239;BME280;16267;48.194;11.546;2022-10-16T10:36:41;96262.44;;;19.98;72.08
29239;BME280;16267;48.194;11.546;2022-10-16T10:42:25;96255.47;;;20.16;71.16
29239;BME280;16267;48.194;11.546;2022-10-16T10:45:16;96264.66;;;20.27;74.56
29239;BME280;16267;48.194;11.546;2022-10-16T10:48:11;96268.28;;;20.34;71.93
29239;BME280;16267;48.194;11.546;2022-10-16T10:53:45;96257.94;;;20.56;68.52
29239;BME280;16267;48.194;11.546;2022-10-16T10:56:51;96264.91;;;20.66;66.93
29239;BME280;16267;48.194;11.546;2022-10-16T11:06:17;96262.34;;;20.96;62.64
29239;BME280;16267;48.194;11.546;2022-10-16T11:08:40;96261.84;;;21.31;61.26
29239;BME280;16267;48.194;11.546;2022-10-16T11:11:29;96253.56;;;21.73;58.09
29239;BME280;16267;48.194;11.546;2022-10-16T11:19:50;96266.09;;;22.19;58.20
29239;BME280;16267;48.194;11.546;2022-10-16T11:22:36;96261.97;;;22.23;56.85
29239;BME280;16267;48.194;11.546;2022-10-16T11:28:11;96254.00;;;22.11;56.09
29239;BME280;16267;48.194;11.546;2022-10-16T11:36:47;96257.28;;;22.00;53.52
29239;BME280;16267;48.194;11.546;2022-10-16T11:39:20;96263.97;;;21.99;54.80
29239;BME280;16267;48.194;11.546;2022-10-16T11:42:40;96256.53;;;21.99;55.75
29239;BME280;16267;48.194;11.546;2022-10-16T11:44:54;96251.06;;;21.99;53.61
29239;BME280;16267;48.194;11.546;2022-10-16T11:47:44;96248.63;;;22.01;55.11
29239;BME280;16267;48.194;11.546;2022-10-16T11:55:42;96261.25;;;22.14;51.48
29239;BME280;16267;48.194;11.546;2022-10-16T11:58:59;96254.84;;;22.17;51.66
29239;BME280;16267;48.194;11.546;2022-10-16T12:04:45;96255.44;;;22.21;51.11
29239;BME280;16267;48.194;11.546;2022-10-16T12:07:23;96251.78;;;22.24;50.29
29239;BME280;16267;48.194;11.546;2022-10-16T12:09:49;96261.03;;;22.26;51.29
29239;BME280;16267;48.194;11.546;2022-10-16T12:12:39;96257.53;;;22.26;50.60
29239;BME280;16267;48.194;11.546;2022-10-16T12:15:29;96258.09;;;22.30;49.54
29239;BME280;16267;48.194;11.546;2022-10-16T12:17:55;96258.66;;;22.34;50.38
29239;BME280;16267;48.194;11.546;2022-10-16T12:20:31;96250.72;;;22.36;49.88
29239;BME280;16267;48.194;11.546;2022-10-16T12:23:01;96249.81;;;22.39;50.40
29239;BME280;16267;48.194;11.546;2022-10-16T12:25:36;96250.81;;;22.42;51.30
29239;BME280;16267;48.194;11.546;2022-10-16T12:28:25;96247.16;;;22.45;51.48
29239;BME280;16267;48.194;11.546;2022-10-16T12:31:00;96243.47;;;22.48;51.68
29239;BME280;16267;48.194;11.546;2022-10-16T12:33:31;96250.44;;;22.49;50.43
29239;BME280;16267;48.194;11.546;2022-10-16T12:36:01;96252.25;;;22.52;50.82
29239;BME280;16267;48.194;11.546;2022-10-16T12:43:50;96248.38;;;22.59;50.60
29239;BME280;16267;48.194;11.546;2022-10-16T12:48:43;96239.97;;;22.62;50.50
29239;BME280;16267;48.194;11.546;2022-10-16T12:51:34;96236.75;;;22.64;50.57
29239;BME280;16267;48.194;11.546;2022-10-16T13:00:28;96239.50;;;22.64;49.43
29239;BME280;16267;48.194;11.546;2022-10-16T13:09:05;96232.81;;;22.65;49.34
29239;BME280;16267;48.194;11.546;2022-10-16T13:15:11;96235.53;;;22.65;47.99
29239;BME280;16267;48.194;11.546;2022-10-16T13:17:54;96232.81;;;22.65;47.00
29239;BME280;16267;48.194;11.546;2022-10-16T13:21:01;96230.06;;;22.65;46.05
29239;BME280;16267;48.194;11.546;2022-10-16T13:26:51;96242.22;;;22.64;46.29
29239;BME280;16267;48.194;11.546;2022-10-16T13:29:20;96238.75;;;22.63;45.89
29239;BME280;16267;48.194;11.546;2022-10-16T13:31:46;96253.94;;;22.64;46.41
29239;BME280;16267;48.194;11.546;2022-10-16T13:34:20;96247.69;;;22.64;46.03
29239;BME280;16267;48.194;11.546;2022-10-16T13:36:49;96253.94;;;22.64;46.54
29239;BME280;16267;48.194;11.546;2022-10-16T13:39:25;96253.94;;;22.64;46.33
29239;BME280;16267;48.194;11.546;2022-10-16T13:42:31;96245.72;;;22.64;46.88
29239;BME280;16267;48.194;11.546;2022-10-16T13:44:56;96243.75;;;22.65;46.77
29239;BME280;16267;48.194;11.546;2022-10-16T13:47:28;96249.97;;;22.65;47.04
29239;BME280;16267;48.194;11.546;2022-10-16T13:50:00;96256.19;;;22.66;47.64
29239;BME280;16267;48.194;11.546;2022-10-16T13:52:27;96251.00;;;22.68;46.84
29239;BME280;16267;48.194;11.546;2022-10-16T13:54:53;96264.19;;;22.69;47.09
29239;BME280;16267;48.194;11.546;2022-10-16T13:57:23;96269.66;;;22.69;46.38
29239;BME280;16267;48.194;11.546;2022-10-16T13:59:50;96262.22;;;22.70;45.83
29239;BME280;16267;48.194;11.546;2022-10-16T14:04:51;96266.47;;;22.71;45.35
29239;BME280;16267;48.194;11.546;2022-10-16T14:07:28;96272.22;;;22.73;44.99
29239;BME280;16267;48.194;11.546;2022-10-16T14:09:55;96271.75;;;22.75;45.72
29239;BME280;16267;48.194;11.546;2022-10-16T14:12:22;96274.47;;;22.75;46.38
29239;BME280;16267;48.194;11.546;2022-10-16T14:14:54;96272.22;;;22.73;44.92
29239;BME280;16267;48.194;11.546;2022-10-16T14:17:43;96273.44;;;22.72;44.27
29239;BME280;16267;48.194;11.546;2022-10-16T14:20:14;96268.75;;;22.73;44.40
29239;BME280;16267;48.194;11.546;2022-10-16T14:22:44;96266.47;;;22.71;44.95
29239;BME280;16267;48.194;11.546;2022-10-16T14:25:29;96268.47;;;22.70;45.89
29239;BME280;16267;48.194;11.546;2022-10-16T14:30:56;96264.69;;;22.68;46.25
29239;BME280;16267;48.194;11.546;2022-10-16T14:33:31;96267.41;;;22.68;46.84
29239;BME280;16267;48.194;11.546;2022-10-16T14:38:38;96264.88;;;22.64;46.17
29239;BME280;16267;48.194;11.546;2022-10-16T14:41:05;96268.84;;;22.63;47.03
29239;BME280;16267;48.194;11.546;2022-10-16T14:45:59;96274.50;;;22.60;46.91
29239;BME280;16267;48.194;11.546;2022-10-16T14:48:27;96268.75;;;22.58;46.88
29239;BME280;16267;48.194;11.546;2022-10-16T14:50:53;96272.41;;;22.55;46.41
29239;BME280;16267;48.194;11.546;2022-10-16T14:53:19;96274.13;;;22.52;46.12
29239;BME280;16267;48.194;11.546;2022-10-16T14:55:45;96278.09;;;22.51;46.11
29239;BME280;16267;48.194;11.546;2022-10-16T14:58:19;96276.31;;;22.48;45.96
29239;BME280;16267;48.194;11.546;2022-10-16T15:00:45;96282.97;;;22.47;46.40
29239;BME280;16267;48.194;11.546;2022-10-16T15:03:11;96276.00;;;22.46;46.16
29239;BME280;16267;48.194;11.546;2022-10-16T15:05:37;96285.91;;;22.43;46.50
29239;BME280;16267;48.194;11.546;2022-10-16T15:08:03;96287.16;;;22.42;47.32